createdAt,value
2023-04-18T00:00:38.295Z,8.61
2023-04-18T00:03:07.050Z,8.57
2023-04-18T00:05:36.597Z,8.58
2023-04-18T00:08:05.692Z,8.50
2023-04-18T00:10:34.335Z,8.53
2023-04-18T00:13:03.965Z,8.62
2023-04-18T00:15:35.360Z,8.58
2023-04-18T00:18:05.905Z,8.54
2023-04-18T00:20:34.601Z,8.36
2023-04-18T00:23:03.237Z,8.43
2023-04-18T00:25:31.969Z,8.51
2023-04-18T00:28:00.585Z,8.39
2023-04-18T00:30:29.219Z,8.38
2023-04-18T00:32:59.211Z,8.39
2023-04-18T00:35:27.921Z,8.43
2023-04-18T00:37:56.573Z,8.41
2023-04-18T00:40:25.464Z,8.39
2023-04-18T00:42:54.058Z,8.38
2023-04-18T00:45:22.924Z,8.41
2023-04-18T00:47:51.580Z,8.40
2023-04-18T00:50:21.823Z,8.46
2023-04-18T00:52:50.545Z,8.47
2023-04-18T00:55:19.348Z,8.45
2023-04-18T00:57:48.087Z,8.43
2023-04-18T01:00:17.010Z,8.51
2023-04-18T01:02:45.835Z,8.43
2023-04-18T01:05:14.723Z,8.29
2023-04-18T01:07:45.395Z,8.26
2023-04-18T01:10:14.163Z,8.34
2023-04-18T01:12:42.862Z,8.28
2023-04-18T01:15:12.288Z,8.25
2023-04-18T01:17:41.016Z,8.26
2023-04-18T01:20:10.801Z,8.26
2023-04-18T01:22:39.411Z,8.21
2023-04-18T01:25:11.541Z,8.19
2023-04-18T01:27:40.173Z,8.24
2023-04-18T01:30:10.250Z,8.18
2023-04-18T01:32:38.890Z,8.20
2023-04-18T01:35:08.385Z,8.20
2023-04-18T01:37:37.017Z,8.17
2023-04-18T01:40:06.427Z,8.20
2023-04-18T01:42:36.437Z,8.22
2023-04-18T01:45:08.292Z,8.21
2023-04-18T01:47:36.919Z,8.19
2023-04-18T01:50:06.829Z,8.19
2023-04-18T01:52:35.421Z,8.09
2023-04-18T01:55:04.247Z,8.13
2023-04-18T01:57:36.543Z,8.15
2023-04-18T02:00:09.579Z,8.13
2023-04-18T02:02:38.420Z,8.19
2023-04-18T02:05:08.063Z,8.17
2023-04-18T02:07:36.781Z,8.07
2023-04-18T02:10:05.989Z,8.06
2023-04-18T02:12:34.982Z,8.07
2023-04-18T02:15:03.700Z,8.07
2023-04-18T02:17:35.510Z,8.10
2023-04-18T02:20:04.461Z,8.08
2023-04-18T02:22:33.135Z,8.08
2023-04-18T02:25:02.283Z,8.06
2023-04-18T02:27:30.894Z,8.05
2023-04-18T02:29:59.482Z,7.96
2023-04-18T02:32:28.083Z,7.90
2023-04-18T02:34:58.069Z,7.97
2023-04-18T02:37:26.823Z,7.98
2023-04-18T02:39:55.431Z,8.03
2023-04-18T02:42:24.049Z,8.11
2023-04-18T02:44:52.612Z,8.08
2023-04-18T02:47:22.560Z,8.08
2023-04-18T02:49:51.252Z,8.06
2023-04-18T02:52:21.238Z,8.02
2023-04-18T02:54:49.806Z,8.07
2023-04-18T02:57:18.539Z,8.04
2023-04-18T02:59:47.152Z,8.02
2023-04-18T03:02:15.971Z,8.04
2023-04-18T03:04:44.738Z,7.99
2023-04-18T03:07:13.363Z,8.03
2023-04-18T03:09:43.271Z,8.00
2023-04-18T03:12:11.882Z,7.99
2023-04-18T03:14:40.554Z,7.98
2023-04-18T03:17:09.165Z,8.00
2023-04-18T03:19:37.840Z,8.00
2023-04-18T03:22:06.647Z,7.86
2023-04-18T03:24:35.223Z,7.98
2023-04-18T03:27:05.240Z,7.95
2023-04-18T03:29:34.167Z,7.94
2023-04-18T03:32:02.798Z,7.90
2023-04-18T03:34:31.513Z,7.86
2023-04-18T03:37:00.126Z,7.89
2023-04-18T03:39:28.752Z,7.90
2023-04-18T03:41:57.312Z,7.92
2023-04-18T03:44:27.279Z,7.94
2023-04-18T03:46:57.244Z,7.89
2023-04-18T03:49:25.897Z,7.91
2023-04-18T03:51:54.545Z,7.91
2023-04-18T03:54:23.215Z,7.90
2023-04-18T03:56:52.312Z,7.93
2023-04-18T03:59:20.976Z,7.91
2023-04-18T04:01:50.917Z,7.91
2023-04-18T04:04:19.624Z,7.95
2023-04-18T04:06:48.366Z,7.89
2023-04-18T04:09:16.998Z,7.86
2023-04-18T04:11:46.170Z,7.81
2023-04-18T04:14:14.860Z,7.81
2023-04-18T04:16:43.647Z,7.85
2023-04-18T04:19:14.838Z,7.83
2023-04-18T04:21:43.459Z,7.83
2023-04-18T04:24:13.763Z,7.79
2023-04-18T04:26:43.269Z,7.79
2023-04-18T04:29:13.786Z,7.74
2023-04-18T04:31:42.459Z,7.70
2023-04-18T04:34:11.275Z,7.65
2023-04-18T04:36:43.077Z,7.71
2023-04-18T04:39:11.998Z,7.74
2023-04-18T04:41:40.688Z,7.72
2023-04-18T04:44:09.517Z,7.78
2023-04-18T04:46:40.155Z,7.84
2023-04-18T04:49:08.718Z,7.91
2023-04-18T04:51:37.345Z,7.91
2023-04-18T04:54:07.510Z,7.83
2023-04-18T04:56:36.715Z,7.86
2023-04-18T04:59:05.899Z,7.90
2023-04-18T05:01:34.588Z,7.94
2023-04-18T05:04:03.520Z,7.89
2023-04-18T05:06:32.471Z,7.88
2023-04-18T05:09:01.218Z,7.95
2023-04-18T05:11:31.202Z,7.91
2023-04-18T05:13:59.793Z,7.88
2023-04-18T05:16:28.443Z,7.87
2023-04-18T05:18:57.113Z,7.90
2023-04-18T05:21:26.157Z,7.85
2023-04-18T05:23:54.734Z,7.84
2023-04-18T05:26:23.503Z,7.89
2023-04-18T05:28:53.530Z,7.92
2023-04-18T05:31:22.908Z,7.88
2023-04-18T05:33:51.578Z,7.90
2023-04-18T05:36:20.210Z,7.99
2023-04-18T05:38:48.798Z,8.00
2023-04-18T05:41:17.428Z,8.02
2023-04-18T05:43:54.235Z,8.07
2023-04-18T05:46:32.264Z,8.04
2023-04-18T05:49:00.938Z,8.07
2023-04-18T05:51:29.502Z,8.09
2023-04-18T05:53:58.116Z,8.15
2023-04-18T05:56:26.839Z,8.13
2023-04-18T05:58:55.902Z,8.09
2023-04-18T06:01:24.610Z,8.16
2023-04-18T06:03:55.323Z,8.19
2023-04-18T06:06:24.122Z,8.25
2023-04-18T06:08:52.804Z,8.24
2023-04-18T06:11:21.591Z,8.26
2023-04-18T06:13:50.321Z,8.32
2023-04-18T06:16:19.807Z,8.32
2023-04-18T06:18:48.434Z,8.26
2023-04-18T06:21:18.410Z,8.32
2023-04-18T06:23:47.037Z,8.34
2023-04-18T06:26:15.850Z,8.31
2023-04-18T06:28:44.457Z,8.32
2023-04-18T06:31:13.199Z,8.29
2023-04-18T06:33:41.941Z,8.31
2023-04-18T06:36:10.734Z,8.37
2023-04-18T06:38:40.696Z,8.42
2023-04-18T06:41:09.339Z,8.38
2023-04-18T06:43:38.016Z,8.44
2023-04-18T06:46:06.875Z,8.41
2023-04-18T06:48:35.522Z,8.32
2023-04-18T06:51:04.166Z,8.41
2023-04-18T06:53:32.800Z,8.47
2023-04-18T06:56:02.889Z,8.48
2023-04-18T06:58:31.493Z,8.50
2023-04-18T07:01:00.169Z,8.49
2023-04-18T07:03:28.872Z,8.54
2023-04-18T07:05:57.527Z,8.60
2023-04-18T07:08:26.169Z,8.66
2023-04-18T07:10:54.857Z,8.47
2023-04-18T07:13:24.896Z,8.53
2023-04-18T07:15:53.523Z,8.56
2023-04-18T07:18:34.270Z,8.62
2023-04-18T07:21:08.041Z,8.66
2023-04-18T07:23:36.741Z,8.77
2023-04-18T07:26:05.787Z,8.78
2023-04-18T07:28:35.994Z,8.78
2023-04-18T07:31:04.845Z,8.85
2023-04-18T07:33:33.914Z,8.86
2023-04-18T07:36:03.030Z,8.87
2023-04-18T07:38:31.738Z,8.96
2023-04-18T07:41:02.050Z,8.96
2023-04-18T07:43:30.869Z,9.08
2023-04-18T07:46:01.111Z,9.10
2023-04-18T07:48:29.817Z,9.19
2023-04-18T07:50:58.617Z,9.22
2023-04-18T07:53:27.287Z,9.12
2023-04-18T07:55:56.313Z,9.15
2023-04-18T07:58:24.914Z,9.22
2023-04-18T08:00:53.535Z,9.21
2023-04-18T08:03:23.771Z,9.19
2023-04-18T08:05:52.531Z,9.29
2023-04-18T08:08:21.270Z,9.43
2023-04-18T08:10:49.948Z,9.60
2023-04-18T08:13:18.976Z,9.64
2023-04-18T08:15:48.051Z,9.58
2023-04-18T08:18:16.729Z,9.74
2023-04-18T08:20:46.691Z,9.93
2023-04-18T08:23:15.859Z,10.13
2023-04-18T08:25:44.517Z,10.21
2023-04-18T08:28:13.938Z,10.27
2023-04-18T08:30:43.135Z,10.17
2023-04-18T08:33:11.780Z,10.16
2023-04-18T08:35:40.895Z,10.23
2023-04-18T08:38:11.216Z,10.26
2023-04-18T08:40:39.892Z,10.30
2023-04-18T08:43:12.196Z,10.40
2023-04-18T08:45:41.118Z,10.36
2023-04-18T08:48:13.214Z,10.47
2023-04-18T08:50:42.008Z,10.49
2023-04-18T08:53:12.445Z,10.47
2023-04-18T08:55:42.106Z,10.55
2023-04-18T08:58:12.373Z,10.49
2023-04-18T09:00:41.690Z,10.52
2023-04-18T09:03:15.568Z,10.55
2023-04-18T09:05:46.877Z,10.55
2023-04-18T09:08:26.167Z,10.57
2023-04-18T09:10:54.801Z,10.56
2023-04-18T09:13:39.507Z,10.61
2023-04-18T09:16:08.293Z,10.43
2023-04-18T09:18:36.909Z,10.55
2023-04-18T09:21:18.530Z,10.47
2023-04-18T09:23:50.368Z,10.42
2023-04-18T09:26:25.149Z,10.57
2023-04-18T09:28:54.424Z,10.63
2023-04-18T09:31:23.294Z,10.69
2023-04-18T09:33:54.138Z,10.70
2023-04-18T09:36:24.382Z,10.74
2023-04-18T09:38:56.904Z,10.76
2023-04-18T09:41:27.020Z,10.78
2023-04-18T09:44:14.672Z,10.76
2023-04-18T09:46:47.121Z,10.86
2023-04-18T09:49:17.425Z,11.11
2023-04-18T09:51:46.836Z,11.27
2023-04-18T09:54:18.127Z,11.36
2023-04-18T09:56:47.978Z,11.48
2023-04-18T09:59:19.843Z,11.22
2023-04-18T10:01:50.630Z,11.32
2023-04-18T10:04:19.927Z,11.36
2023-04-18T10:06:48.692Z,11.47
2023-04-18T10:09:18.900Z,11.57
2023-04-18T10:11:47.751Z,11.40
2023-04-18T10:14:17.401Z,11.36
2023-04-18T10:16:48.632Z,11.40
2023-04-18T10:19:26.513Z,11.49
2023-04-18T10:21:56.145Z,11.69
2023-04-18T10:24:49.386Z,11.73
2023-04-18T10:27:19.428Z,11.86
2023-04-18T10:29:49.340Z,11.99
2023-04-18T10:32:23.316Z,12.04
2023-04-18T10:34:54.504Z,12.07
2023-04-18T10:37:23.108Z,12.04
2023-04-18T10:39:58.281Z,11.94
2023-04-18T10:43:00.930Z,11.95
2023-04-18T10:45:32.562Z,11.95
2023-04-18T10:48:24.127Z,12.02
2023-04-18T10:51:15.039Z,12.17
2023-04-18T10:53:50.906Z,12.18
2023-04-18T10:56:21.144Z,12.29
2023-04-18T10:58:52.010Z,12.43
2023-04-18T11:01:31.048Z,12.66
2023-04-18T11:04:01.376Z,12.38
2023-04-18T11:06:31.381Z,12.50
2023-04-18T11:09:13.713Z,12.52
2023-04-18T11:11:44.450Z,12.59
2023-04-18T11:14:13.405Z,12.56
2023-04-18T11:16:42.309Z,12.50
2023-04-18T11:19:21.534Z,12.50
2023-04-18T11:21:51.200Z,12.54
2023-04-18T11:24:23.944Z,12.64
2023-04-18T11:26:56.291Z,12.72
2023-04-18T11:29:25.132Z,12.80
2023-04-18T11:31:57.566Z,12.81
2023-04-18T11:34:30.382Z,12.84
2023-04-18T11:36:59.359Z,12.83
2023-04-18T11:39:28.114Z,12.92
2023-04-18T11:42:01.334Z,12.95
2023-04-18T11:44:30.035Z,12.88
2023-04-18T11:46:58.749Z,12.83
2023-04-18T11:49:28.400Z,12.70
2023-04-18T11:51:57.398Z,12.71
2023-04-18T11:54:42.983Z,12.70
2023-04-18T11:57:23.610Z,12.76
2023-04-18T11:59:53.517Z,12.84
2023-04-18T12:02:23.334Z,12.79
2023-04-18T12:04:54.033Z,12.78
2023-04-18T12:07:33.155Z,12.83
2023-04-18T12:10:02.150Z,12.78
2023-04-18T12:12:32.280Z,12.86
2023-04-18T12:15:02.333Z,12.98
2023-04-18T12:17:31.901Z,12.99
2023-04-18T12:20:05.597Z,12.97
2023-04-18T12:22:47.317Z,13.07
2023-04-18T12:25:26.161Z,13.13
2023-04-18T12:27:59.116Z,13.13
2023-04-18T12:30:30.164Z,13.12
2023-04-18T12:32:59.947Z,13.01
2023-04-18T12:35:29.871Z,13.06
2023-04-18T12:38:00.316Z,13.05
2023-04-18T12:40:30.096Z,13.15
2023-04-18T12:43:02.125Z,13.06
2023-04-18T12:45:32.166Z,13.17
2023-04-18T12:48:00.842Z,13.16
2023-04-18T12:50:29.600Z,13.24
2023-04-18T12:53:00.141Z,13.15
2023-04-18T12:55:29.498Z,13.16
2023-04-18T12:57:58.485Z,13.24
2023-04-18T13:00:30.590Z,13.28
2023-04-18T13:02:59.774Z,13.26
2023-04-18T13:05:33.073Z,13.33
2023-04-18T13:10:34.648Z,13.43
2023-04-18T13:13:03.382Z,13.50
2023-04-18T13:15:33.488Z,13.56
2023-04-18T13:18:05.188Z,13.59
2023-04-18T13:20:34.048Z,13.65
2023-04-18T13:23:03.268Z,13.57
2023-04-18T13:25:32.355Z,13.52
2023-04-18T13:28:01.350Z,13.62
2023-04-18T13:30:30.149Z,13.79
2023-04-18T13:33:00.326Z,13.86
2023-04-18T13:35:29.110Z,13.78
2023-04-18T13:37:57.756Z,13.72
2023-04-18T13:40:26.436Z,13.73
2023-04-18T13:42:55.078Z,13.69
2023-04-18T13:45:23.670Z,13.72
2023-04-18T13:47:52.361Z,13.76
2023-04-18T13:50:23.162Z,13.73
2023-04-18T13:52:52.020Z,13.81
2023-04-18T13:55:21.086Z,13.80
2023-04-18T13:57:49.691Z,13.85
2023-04-18T14:00:19.327Z,13.78
2023-04-18T14:02:48.068Z,13.73
2023-04-18T14:05:17.033Z,13.63
2023-04-18T14:07:48.516Z,13.53
2023-04-18T14:10:17.278Z,13.50
2023-04-18T14:12:45.947Z,13.44
2023-04-18T14:15:14.530Z,13.37
2023-04-18T14:17:45.501Z,13.44
2023-04-18T14:20:19.148Z,13.51
2023-04-18T14:22:53.036Z,13.50
2023-04-18T14:25:22.218Z,13.52
2023-04-18T14:28:05.163Z,13.61
2023-04-18T14:30:34.070Z,13.56
2023-04-18T14:33:02.769Z,13.61
2023-04-18T14:35:31.601Z,13.54
2023-04-18T14:38:01.576Z,13.50
2023-04-18T14:40:32.554Z,13.47
2023-04-18T14:43:01.663Z,13.58
2023-04-18T14:45:33.113Z,13.52
2023-04-18T14:48:01.960Z,13.56
2023-04-18T14:50:30.805Z,13.60
2023-04-18T14:53:01.087Z,13.52
2023-04-18T14:55:29.772Z,13.55
2023-04-18T14:57:58.350Z,13.50
2023-04-18T15:00:27.252Z,13.55
2023-04-18T15:02:56.514Z,13.44
2023-04-18T15:05:25.947Z,13.42
2023-04-18T15:07:56.022Z,13.44
2023-04-18T15:10:26.264Z,13.43
2023-04-18T15:12:54.944Z,13.48
2023-04-18T15:15:25.149Z,13.45
2023-04-18T15:17:53.913Z,13.49
2023-04-18T15:20:23.951Z,13.52
2023-04-18T15:22:52.759Z,13.55
2023-04-18T15:25:21.412Z,13.55
2023-04-18T15:27:51.434Z,13.56
2023-04-18T15:30:20.199Z,13.58
2023-04-18T15:32:49.069Z,13.69
2023-04-18T15:35:17.762Z,13.71
2023-04-18T15:37:46.422Z,13.75
2023-04-18T15:40:16.424Z,13.74
2023-04-18T15:42:45.502Z,13.75
2023-04-18T15:45:15.569Z,13.74
2023-04-18T15:47:44.288Z,13.74
2023-04-18T15:50:13.044Z,13.69
2023-04-18T15:52:41.972Z,13.64
2023-04-18T15:55:12.208Z,13.63
2023-04-18T15:57:41.157Z,13.68
2023-04-18T16:00:15.689Z,13.63
2023-04-18T16:02:46.241Z,13.61
2023-04-18T16:05:15.355Z,13.61
2023-04-18T16:07:44.427Z,13.61
2023-04-18T16:10:15.100Z,13.63
2023-04-18T16:12:43.804Z,13.62
2023-04-18T16:15:13.606Z,13.56
2023-04-18T16:17:42.311Z,13.48
2023-04-18T16:20:12.737Z,13.38
2023-04-18T16:22:41.365Z,13.37
2023-04-18T16:25:10.682Z,13.21
2023-04-18T16:27:39.446Z,13.19
2023-04-18T16:30:10.005Z,13.23
2023-04-18T16:32:39.056Z,13.18
2023-04-18T16:35:10.128Z,13.13
2023-04-18T16:37:41.021Z,13.13
2023-04-18T16:40:10.250Z,13.13
2023-04-18T16:42:39.820Z,13.07
2023-04-18T16:45:09.322Z,13.11
2023-04-18T16:47:38.379Z,13.09
2023-04-18T16:50:08.462Z,12.94
2023-04-18T16:52:37.101Z,13.03
2023-04-18T16:55:07.680Z,12.90
2023-04-18T16:57:36.350Z,12.85
2023-04-18T17:00:06.699Z,12.72
2023-04-18T17:02:35.791Z,12.76
2023-04-18T17:05:04.914Z,12.76
2023-04-18T17:07:33.644Z,12.70
2023-04-18T17:10:02.293Z,12.69
2023-04-18T17:12:32.352Z,12.72
2023-04-18T17:15:01.002Z,12.76
2023-04-18T17:17:29.607Z,12.77
2023-04-18T17:19:58.633Z,12.72
2023-04-18T17:22:27.252Z,12.72
2023-04-18T17:24:55.885Z,12.74
2023-04-18T17:27:24.563Z,12.68
2023-04-18T17:29:54.548Z,12.65
2023-04-18T17:32:23.570Z,12.67
2023-04-18T17:34:52.193Z,12.57
2023-04-18T17:37:22.353Z,12.54
2023-04-18T17:39:51.027Z,12.62
2023-04-18T17:42:21.026Z,12.60
2023-04-18T17:44:49.709Z,12.56
2023-04-18T17:47:19.975Z,12.64
2023-04-18T17:49:48.593Z,12.66
2023-04-18T17:52:17.918Z,12.65
2023-04-18T17:54:46.580Z,12.60
2023-04-18T17:57:15.257Z,12.59
2023-04-18T17:59:43.873Z,12.59
2023-04-18T18:02:12.856Z,12.59
2023-04-18T18:04:42.928Z,12.57
2023-04-18T18:07:11.708Z,12.55
2023-04-18T18:09:41.463Z,12.54
2023-04-18T18:12:10.708Z,12.52
2023-04-18T18:14:40.512Z,12.49
2023-04-18T18:17:09.418Z,12.47
2023-04-18T18:19:38.310Z,12.47
2023-04-18T18:22:08.413Z,12.50
2023-04-18T18:24:37.074Z,12.44
2023-04-18T18:27:06.056Z,12.47
2023-04-18T18:29:34.683Z,12.38
2023-04-18T18:32:03.351Z,12.34
2023-04-18T18:34:32.100Z,12.34
2023-04-18T18:37:00.863Z,12.36
2023-04-18T18:39:30.910Z,12.34
2023-04-18T18:41:59.543Z,12.37
2023-04-18T18:44:28.231Z,12.38
2023-04-18T18:46:57.582Z,12.32
2023-04-18T18:49:26.554Z,12.26
2023-04-18T18:51:55.271Z,12.28
2023-04-18T18:54:23.991Z,12.23
2023-04-18T18:56:53.997Z,12.19
2023-04-18T18:59:22.687Z,12.16
2023-04-18T19:01:51.349Z,12.28
2023-04-18T19:04:20.142Z,12.24
2023-04-18T19:06:49.134Z,12.19
2023-04-18T19:09:17.753Z,12.17
2023-04-18T19:11:46.369Z,12.16
2023-04-18T19:14:16.550Z,12.00
2023-04-18T19:16:45.334Z,12.00
2023-04-18T19:19:14.618Z,11.92
2023-04-18T19:21:45.812Z,11.87
2023-04-18T19:24:14.623Z,11.87
2023-04-18T19:26:43.355Z,11.84
2023-04-18T19:29:14.098Z,11.86
2023-04-18T19:31:44.688Z,11.77
2023-04-18T19:34:13.459Z,11.70
2023-04-18T19:36:42.253Z,11.75
2023-04-18T19:39:10.882Z,11.75
2023-04-18T19:41:39.645Z,11.85
2023-04-18T19:44:08.306Z,11.67
2023-04-18T19:46:36.974Z,11.67
2023-04-18T19:49:07.063Z,11.55
2023-04-18T19:51:35.685Z,11.55
2023-04-18T19:54:04.705Z,11.57
2023-04-18T19:56:33.335Z,11.48
2023-04-18T19:59:02.369Z,11.57
2023-04-18T20:01:31.253Z,11.52
2023-04-18T20:04:00.537Z,11.48
2023-04-18T20:06:31.632Z,11.46
2023-04-18T20:09:00.273Z,11.50
2023-04-18T20:11:28.870Z,11.53
2023-04-18T20:13:57.470Z,11.48
2023-04-18T20:16:26.178Z,11.39
2023-04-18T20:18:55.229Z,11.34
2023-04-18T20:21:23.910Z,11.38
2023-04-18T20:23:53.919Z,11.29
2023-04-18T20:26:22.540Z,11.29
2023-04-18T20:28:51.302Z,11.27
2023-04-18T20:31:19.998Z,11.21
2023-04-18T20:33:48.743Z,11.17
2023-04-18T20:36:18.418Z,10.98
2023-04-18T20:38:47.157Z,11.00
2023-04-18T20:41:20.728Z,11.09
2023-04-18T20:43:50.570Z,11.12
2023-04-18T20:46:19.218Z,11.02
2023-04-18T20:48:47.879Z,10.95
2023-04-18T20:51:16.836Z,10.98
2023-04-18T20:53:45.650Z,10.94
2023-04-18T20:56:14.323Z,10.97
2023-04-18T20:58:44.336Z,11.10
2023-04-18T21:01:12.990Z,11.04
2023-04-18T21:03:41.909Z,11.04
2023-04-18T21:06:10.895Z,11.09
2023-04-18T21:08:39.542Z,11.04
2023-04-18T21:11:08.422Z,11.01
2023-04-18T21:13:38.055Z,10.95
2023-04-18T21:16:10.227Z,10.93
2023-04-18T21:18:38.942Z,11.00
2023-04-18T21:21:07.847Z,10.96
2023-04-18T21:23:42.454Z,10.79
2023-04-18T21:26:12.844Z,10.88
2023-04-18T21:28:58.180Z,10.85
2023-04-18T21:31:30.561Z,10.83
2023-04-18T21:34:00.962Z,10.78
2023-04-18T21:36:30.622Z,10.79
2023-04-18T21:39:00.683Z,10.79
2023-04-18T21:41:29.382Z,10.76
2023-04-18T21:43:58.066Z,10.72
2023-04-18T21:46:28.184Z,10.70
2023-04-18T21:48:56.788Z,10.70
2023-04-18T21:51:25.420Z,10.73
2023-04-18T21:53:54.044Z,10.70
2023-04-18T21:56:22.734Z,10.81
2023-04-18T21:58:51.393Z,10.78
2023-04-18T22:01:20.070Z,10.55
2023-04-18T22:03:50.295Z,10.63
2023-04-18T22:06:20.726Z,10.66
2023-04-18T22:08:49.963Z,10.65
2023-04-18T22:11:18.966Z,10.59
2023-04-18T22:13:47.608Z,10.60
2023-04-18T22:16:16.363Z,10.65
2023-04-18T22:18:44.992Z,10.68
2023-04-18T22:21:14.925Z,10.68
2023-04-18T22:23:43.629Z,10.68
2023-04-18T22:26:12.227Z,10.66
2023-04-18T22:28:40.926Z,10.66
2023-04-18T22:31:09.664Z,10.68
2023-04-18T22:33:38.365Z,10.70
2023-04-18T22:36:07.615Z,10.56
2023-04-18T22:38:37.563Z,10.56
2023-04-18T22:41:06.409Z,10.53
2023-04-18T22:43:35.003Z,10.59
2023-04-18T22:46:03.844Z,10.56
2023-04-18T22:48:35.101Z,10.54
2023-04-18T22:51:03.825Z,10.55
2023-04-18T22:53:32.542Z,10.55
2023-04-18T22:56:02.495Z,10.55
2023-04-18T22:58:31.560Z,10.57
2023-04-18T23:01:00.523Z,10.53
2023-04-18T23:03:29.340Z,10.47
2023-04-18T23:05:58.058Z,10.50
2023-04-18T23:08:26.687Z,10.53
2023-04-18T23:10:55.422Z,10.51
2023-04-18T23:13:25.410Z,10.57
2023-04-18T23:15:54.066Z,10.52
2023-04-18T23:18:22.722Z,10.54
2023-04-18T23:20:51.278Z,10.42
2023-04-18T23:23:19.848Z,10.50
2023-04-18T23:25:48.484Z,10.60
2023-04-18T23:28:17.198Z,10.49
2023-04-18T23:30:48.038Z,10.52
2023-04-18T23:33:16.796Z,10.48
2023-04-18T23:35:45.545Z,10.46
2023-04-18T23:38:14.144Z,10.36
2023-04-18T23:40:42.771Z,10.38
2023-04-18T23:43:11.425Z,10.38
2023-04-18T23:45:40.082Z,10.38
2023-04-18T23:48:10.111Z,10.43
2023-04-18T23:50:38.723Z,10.42
2023-04-18T23:53:07.957Z,10.40
2023-04-18T23:55:36.576Z,10.34
2023-04-18T23:58:05.207Z,10.38
